sensor_id;sensor_type;location;lat;lon;timestamp;P1;durP1;ratioP1;P2;durP2;ratioP2
45728;SDS011;31439;53.512;10.206;2023-02-01T00:02:04;22.88;;;3.85;;
45728;SDS011;31439;53.512;10.206;2023-02-01T00:04:30;18.05;;;3.40;;
45728;SDS011;31439;53.512;10.206;2023-02-01T00:06:56;19.33;;;4.18;;
45728;SDS011;31439;53.512;10.206;2023-02-01T00:09:22;20.13;;;3.53;;
45728;SDS011;31439;53.512;10.206;2023-02-01T00:11:49;18.05;;;3.58;;
45728;SDS011;31439;53.512;10.206;2023-02-01T00:14:15;22.95;;;4.70;;
45728;SDS011;31439;53.512;10.206;2023-02-01T00:16:42;20.67;;;4.05;;
45728;SDS011;31439;53.512;10.206;2023-02-01T00:19:10;22.38;;;4.28;;
45728;SDS011;31439;53.512;10.206;2023-02-01T00:21:36;24.50;;;4.13;;
45728;SDS011;31439;53.512;10.206;2023-02-01T00:24:03;25.33;;;4.28;;
45728;SDS011;31439;53.512;10.206;2023-02-01T00:28:58;25.80;;;4.85;;
45728;SDS011;31439;53.512;10.206;2023-02-01T00:31:24;27.25;;;4.65;;
45728;SDS011;31439;53.512;10.206;2023-02-01T00:33:50;35.08;;;5.18;;
45728;SDS011;31439;53.512;10.206;2023-02-01T00:36:16;24.73;;;4.15;;
45728;SDS011;31439;53.512;10.206;2023-02-01T00:38:42;24.70;;;4.75;;
45728;SDS011;31439;53.512;10.206;2023-02-01T00:41:12;19.73;;;4.18;;
45728;SDS011;31439;53.512;10.206;2023-02-01T00:43:38;26.83;;;5.25;;
45728;SDS011;31439;53.512;10.206;2023-02-01T00:46:04;24.45;;;3.90;;
45728;SDS011;31439;53.512;10.206;2023-02-01T00:48:30;20.45;;;4.50;;
45728;SDS011;31439;53.512;10.206;2023-02-01T00:51:00;30.95;;;5.20;;
45728;SDS011;31439;53.512;10.206;2023-02-01T00:53:26;20.58;;;4.22;;
45728;SDS011;31439;53.512;10.206;2023-02-01T00:55:52;29.65;;;4.82;;
45728;SDS011;31439;53.512;10.206;2023-02-01T00:58:18;25.92;;;4.28;;
45728;SDS011;31439;53.512;10.206;2023-02-01T01:00:44;34.13;;;4.85;;
45728;SDS011;31439;53.512;10.206;2023-02-01T01:03:11;28.27;;;5.03;;
45728;SDS011;31439;53.512;10.206;2023-02-01T01:05:46;30.75;;;5.32;;
45728;SDS011;31439;53.512;10.206;2023-02-01T01:08:13;30.25;;;5.30;;
45728;SDS011;31439;53.512;10.206;2023-02-01T01:10:39;28.10;;;5.03;;
45728;SDS011;31439;53.512;10.206;2023-02-01T01:13:05;32.00;;;4.93;;
45728;SDS011;31439;53.512;10.206;2023-02-01T01:15:35;23.02;;;4.18;;
45728;SDS011;31439;53.512;10.206;2023-02-01T01:18:01;31.58;;;6.30;;
45728;SDS011;31439;53.512;10.206;2023-02-01T01:20:27;30.10;;;5.53;;
45728;SDS011;31439;53.512;10.206;2023-02-01T01:22:53;26.13;;;5.07;;
45728;SDS011;31439;53.512;10.206;2023-02-01T01:25:19;29.10;;;4.80;;
45728;SDS011;31439;53.512;10.206;2023-02-01T01:27:46;28.98;;;5.07;;
45728;SDS011;31439;53.512;10.206;2023-02-01T01:30:12;28.73;;;4.63;;
45728;SDS011;31439;53.512;10.206;2023-02-01T01:32:38;31.92;;;5.30;;
45728;SDS011;31439;53.512;10.206;2023-02-01T01:35:04;32.17;;;5.57;;
45728;SDS011;31439;53.512;10.206;2023-02-01T01:37:31;28.90;;;5.40;;
45728;SDS011;31439;53.512;10.206;2023-02-01T01:39:57;35.50;;;4.55;;
45728;SDS011;31439;53.512;10.206;2023-02-01T01:42:23;28.63;;;4.88;;
45728;SDS011;31439;53.512;10.206;2023-02-01T01:44:56;46.20;;;6.20;;
45728;SDS011;31439;53.512;10.206;2023-02-01T01:47:23;27.38;;;4.72;;
45728;SDS011;31439;53.512;10.206;2023-02-01T01:49:49;32.83;;;6.43;;
45728;SDS011;31439;53.512;10.206;2023-02-01T01:52:15;32.47;;;5.55;;
45728;SDS011;31439;53.512;10.206;2023-02-01T01:54:43;34.10;;;5.30;;
45728;SDS011;31439;53.512;10.206;2023-02-01T01:57:20;36.85;;;5.57;;
45728;SDS011;31439;53.512;10.206;2023-02-01T01:59:50;36.30;;;4.95;;
45728;SDS011;31439;53.512;10.206;2023-02-01T02:02:18;32.72;;;5.15;;
45728;SDS011;31439;53.512;10.206;2023-02-01T02:04:44;33.88;;;5.72;;
45728;SDS011;31439;53.512;10.206;2023-02-01T02:07:12;27.35;;;5.32;;
45728;SDS011;31439;53.512;10.206;2023-02-01T02:09:40;34.78;;;4.85;;
45728;SDS011;31439;53.512;10.206;2023-02-01T02:12:09;30.02;;;4.72;;
45728;SDS011;31439;53.512;10.206;2023-02-01T02:14:35;31.33;;;5.65;;
45728;SDS011;31439;53.512;10.206;2023-02-01T02:32:47;34.03;;;5.85;;
45728;SDS011;31439;53.512;10.206;2023-02-01T02:37:51;34.90;;;6.00;;
45728;SDS011;31439;53.512;10.206;2023-02-01T02:40:27;39.15;;;5.07;;
45728;SDS011;31439;53.512;10.206;2023-02-01T02:42:59;35.15;;;5.28;;
45728;SDS011;31439;53.512;10.206;2023-02-01T02:45:51;27.45;;;5.07;;
45728;SDS011;31439;53.512;10.206;2023-02-01T02:48:42;34.78;;;5.47;;
45728;SDS011;31439;53.512;10.206;2023-02-01T02:51:14;26.35;;;4.60;;
45728;SDS011;31439;53.512;10.206;2023-02-01T02:56:44;32.85;;;5.07;;
45728;SDS011;31439;53.512;10.206;2023-02-01T02:59:29;29.13;;;5.38;;
45728;SDS011;31439;53.512;10.206;2023-02-01T03:02:15;26.63;;;5.05;;
45728;SDS011;31439;53.512;10.206;2023-02-01T03:05:00;31.45;;;6.05;;
45728;SDS011;31439;53.512;10.206;2023-02-01T03:12:49;34.55;;;5.72;;
45728;SDS011;31439;53.512;10.206;2023-02-01T03:15:38;34.25;;;5.25;;
45728;SDS011;31439;53.512;10.206;2023-02-01T03:18:13;31.02;;;6.20;;
45728;SDS011;31439;53.512;10.206;2023-02-01T03:20:42;34.20;;;5.55;;
45728;SDS011;31439;53.512;10.206;2023-02-01T03:23:10;31.40;;;4.18;;
45728;SDS011;31439;53.512;10.206;2023-02-01T03:25:38;23.95;;;4.22;;
45728;SDS011;31439;53.512;10.206;2023-02-01T03:28:06;29.98;;;5.78;;
45728;SDS011;31439;53.512;10.206;2023-02-01T03:33:00;23.73;;;4.28;;
45728;SDS011;31439;53.512;10.206;2023-02-01T03:35:30;26.00;;;3.85;;
45728;SDS011;31439;53.512;10.206;2023-02-01T03:38:42;25.50;;;4.18;;
45728;SDS011;31439;53.512;10.206;2023-02-01T03:40:51;27.77;;;4.20;;
45728;SDS011;31439;53.512;10.206;2023-02-01T03:43:19;20.63;;;3.92;;
45728;SDS011;31439;53.512;10.206;2023-02-01T03:45:49;14.57;;;3.42;;
45728;SDS011;31439;53.512;10.206;2023-02-01T03:48:18;14.95;;;2.60;;
45728;SDS011;31439;53.512;10.206;2023-02-01T03:50:47;14.57;;;2.63;;
45728;SDS011;31439;53.512;10.206;2023-02-01T03:53:16;14.02;;;2.88;;
45728;SDS011;31439;53.512;10.206;2023-02-01T03:55:43;15.02;;;3.20;;
45728;SDS011;31439;53.512;10.206;2023-02-01T03:58:10;11.63;;;2.15;;
45728;SDS011;31439;53.512;10.206;2023-02-01T04:00:37;10.60;;;2.33;;
45728;SDS011;31439;53.512;10.206;2023-02-01T04:03:03;8.20;;;1.83;;
45728;SDS011;31439;53.512;10.206;2023-02-01T04:05:30;12.07;;;2.72;;
45728;SDS011;31439;53.512;10.206;2023-02-01T04:07:56;11.75;;;1.90;;
45728;SDS011;31439;53.512;10.206;2023-02-01T04:10:22;10.73;;;2.55;;
45728;SDS011;31439;53.512;10.206;2023-02-01T04:12:48;10.35;;;2.55;;
45728;SDS011;31439;53.512;10.206;2023-02-01T04:15:14;15.15;;;2.65;;
45728;SDS011;31439;53.512;10.206;2023-02-01T04:17:40;18.25;;;2.80;;
45728;SDS011;31439;53.512;10.206;2023-02-01T04:20:06;14.60;;;2.60;;
45728;SDS011;31439;53.512;10.206;2023-02-01T04:22:33;17.38;;;3.72;;
45728;SDS011;31439;53.512;10.206;2023-02-01T04:24:59;16.13;;;2.67;;
45728;SDS011;31439;53.512;10.206;2023-02-01T04:27:26;19.65;;;3.35;;
45728;SDS011;31439;53.512;10.206;2023-02-01T04:29:52;24.13;;;3.65;;
45728;SDS011;31439;53.512;10.206;2023-02-01T04:32:17;21.33;;;3.58;;
45728;SDS011;31439;53.512;10.206;2023-02-01T04:34:44;14.20;;;3.35;;
45728;SDS011;31439;53.512;10.206;2023-02-01T04:37:10;16.65;;;3.05;;
45728;SDS011;31439;53.512;10.206;2023-02-01T04:39:36;15.20;;;3.00;;
45728;SDS011;31439;53.512;10.206;2023-02-01T04:42:02;17.20;;;2.80;;
45728;SDS011;31439;53.512;10.206;2023-02-01T04:44:29;14.15;;;2.88;;
45728;SDS011;31439;53.512;10.206;2023-02-01T04:46:55;13.55;;;2.95;;
45728;SDS011;31439;53.512;10.206;2023-02-01T04:49:21;17.08;;;2.53;;
45728;SDS011;31439;53.512;10.206;2023-02-01T04:51:47;18.50;;;2.95;;
45728;SDS011;31439;53.512;10.206;2023-02-01T04:54:13;15.82;;;2.58;;
45728;SDS011;31439;53.512;10.206;2023-02-01T04:56:39;14.18;;;2.47;;
45728;SDS011;31439;53.512;10.206;2023-02-01T04:59:05;14.30;;;3.03;;
45728;SDS011;31439;53.512;10.206;2023-02-01T05:01:31;13.88;;;2.80;;
45728;SDS011;31439;53.512;10.206;2023-02-01T05:03:57;11.60;;;2.20;;
45728;SDS011;31439;53.512;10.206;2023-02-01T05:06:23;10.45;;;2.30;;
45728;SDS011;31439;53.512;10.206;2023-02-01T05:08:50;11.57;;;2.25;;
45728;SDS011;31439;53.512;10.206;2023-02-01T05:11:16;13.38;;;2.10;;
45728;SDS011;31439;53.512;10.206;2023-02-01T05:14:00;16.42;;;2.30;;
45728;SDS011;31439;53.512;10.206;2023-02-01T05:16:26;8.55;;;2.33;;
45728;SDS011;31439;53.512;10.206;2023-02-01T05:18:53;8.85;;;1.70;;
45728;SDS011;31439;53.512;10.206;2023-02-01T05:21:20;7.18;;;1.77;;
45728;SDS011;31439;53.512;10.206;2023-02-01T05:23:46;7.07;;;1.25;;
45728;SDS011;31439;53.512;10.206;2023-02-01T05:26:31;4.40;;;1.50;;
45728;SDS011;31439;53.512;10.206;2023-02-01T05:28:57;6.30;;;1.33;;
45728;SDS011;31439;53.512;10.206;2023-02-01T05:31:23;3.92;;;1.27;;
45728;SDS011;31439;53.512;10.206;2023-02-01T05:33:49;2.63;;;1.00;;
45728;SDS011;31439;53.512;10.206;2023-02-01T05:36:15;3.25;;;1.08;;
45728;SDS011;31439;53.512;10.206;2023-02-01T05:38:42;3.13;;;0.70;;
45728;SDS011;31439;53.512;10.206;2023-02-01T05:41:08;2.40;;;0.90;;
45728;SDS011;31439;53.512;10.206;2023-02-01T05:43:34;2.83;;;0.80;;
45728;SDS011;31439;53.512;10.206;2023-02-01T05:46:00;2.03;;;0.80;;
45728;SDS011;31439;53.512;10.206;2023-02-01T05:48:26;4.72;;;0.88;;
45728;SDS011;31439;53.512;10.206;2023-02-01T05:50:52;2.53;;;0.90;;
45728;SDS011;31439;53.512;10.206;2023-02-01T05:53:18;5.50;;;1.23;;
45728;SDS011;31439;53.512;10.206;2023-02-01T05:55:44;3.85;;;1.20;;
45728;SDS011;31439;53.512;10.206;2023-02-01T05:58:10;4.55;;;1.17;;
45728;SDS011;31439;53.512;10.206;2023-02-01T06:00:37;3.05;;;1.00;;
45728;SDS011;31439;53.512;10.206;2023-02-01T06:03:03;3.00;;;1.10;;
45728;SDS011;31439;53.512;10.206;2023-02-01T06:05:29;3.65;;;1.13;;
45728;SDS011;31439;53.512;10.206;2023-02-01T06:07:55;3.92;;;1.10;;
45728;SDS011;31439;53.512;10.206;2023-02-01T06:10:22;5.95;;;1.63;;
45728;SDS011;31439;53.512;10.206;2023-02-01T06:12:48;3.95;;;1.30;;
45728;SDS011;31439;53.512;10.206;2023-02-01T06:15:14;3.03;;;1.05;;
45728;SDS011;31439;53.512;10.206;2023-02-01T06:17:41;1.13;;;0.90;;
45728;SDS011;31439;53.512;10.206;2023-02-01T06:20:08;2.75;;;1.17;;
45728;SDS011;31439;53.512;10.206;2023-02-01T06:22:34;3.90;;;1.10;;
45728;SDS011;31439;53.512;10.206;2023-02-01T06:25:01;3.20;;;1.30;;
45728;SDS011;31439;53.512;10.206;2023-02-01T06:27:27;2.75;;;1.10;;
45728;SDS011;31439;53.512;10.206;2023-02-01T06:29:53;3.03;;;1.00;;
45728;SDS011;31439;53.512;10.206;2023-02-01T06:32:20;2.83;;;1.27;;
45728;SDS011;31439;53.512;10.206;2023-02-01T06:34:46;4.57;;;1.50;;
45728;SDS011;31439;53.512;10.206;2023-02-01T06:37:12;3.13;;;1.05;;
45728;SDS011;31439;53.512;10.206;2023-02-01T06:39:38;5.63;;;1.58;;
45728;SDS011;31439;53.512;10.206;2023-02-01T06:42:04;4.30;;;1.45;;
45728;SDS011;31439;53.512;10.206;2023-02-01T06:44:30;7.70;;;1.70;;
45728;SDS011;31439;53.512;10.206;2023-02-01T06:46:56;7.40;;;1.60;;
45728;SDS011;31439;53.512;10.206;2023-02-01T06:49:22;9.85;;;1.67;;
45728;SDS011;31439;53.512;10.206;2023-02-01T06:51:48;7.63;;;1.65;;
45728;SDS011;31439;53.512;10.206;2023-02-01T06:54:14;7.93;;;1.80;;
45728;SDS011;31439;53.512;10.206;2023-02-01T06:56:40;4.00;;;1.58;;
45728;SDS011;31439;53.512;10.206;2023-02-01T06:59:06;9.27;;;1.98;;
45728;SDS011;31439;53.512;10.206;2023-02-01T07:01:33;12.48;;;2.20;;
45728;SDS011;31439;53.512;10.206;2023-02-01T07:03:59;8.57;;;2.00;;
45728;SDS011;31439;53.512;10.206;2023-02-01T07:06:25;9.65;;;2.38;;
45728;SDS011;31439;53.512;10.206;2023-02-01T07:08:51;11.57;;;2.03;;
45728;SDS011;31439;53.512;10.206;2023-02-01T07:11:20;15.50;;;2.80;;
45728;SDS011;31439;53.512;10.206;2023-02-01T07:13:46;12.35;;;3.13;;
45728;SDS011;31439;53.512;10.206;2023-02-01T07:16:13;13.02;;;2.45;;
45728;SDS011;31439;53.512;10.206;2023-02-01T07:18:39;15.52;;;2.67;;
45728;SDS011;31439;53.512;10.206;2023-02-01T07:21:05;14.82;;;2.72;;
45728;SDS011;31439;53.512;10.206;2023-02-01T07:23:31;23.05;;;3.38;;
45728;SDS011;31439;53.512;10.206;2023-02-01T07:25:58;14.23;;;2.70;;
45728;SDS011;31439;53.512;10.206;2023-02-01T07:28:24;25.00;;;4.15;;
45728;SDS011;31439;53.512;10.206;2023-02-01T07:30:51;20.08;;;3.10;;
45728;SDS011;31439;53.512;10.206;2023-02-01T07:33:18;22.27;;;3.67;;
45728;SDS011;31439;53.512;10.206;2023-02-01T07:35:45;21.60;;;4.75;;
45728;SDS011;31439;53.512;10.206;2023-02-01T07:38:11;20.10;;;3.78;;
45728;SDS011;31439;53.512;10.206;2023-02-01T07:40:37;22.95;;;3.92;;
45728;SDS011;31439;53.512;10.206;2023-02-01T07:43:03;21.15;;;3.75;;
45728;SDS011;31439;53.512;10.206;2023-02-01T07:45:31;15.50;;;2.75;;
45728;SDS011;31439;53.512;10.206;2023-02-01T07:47:57;10.55;;;2.20;;
45728;SDS011;31439;53.512;10.206;2023-02-01T07:50:23;19.00;;;2.97;;
45728;SDS011;31439;53.512;10.206;2023-02-01T07:52:49;14.40;;;3.45;;
45728;SDS011;31439;53.512;10.206;2023-02-01T07:55:15;13.20;;;2.90;;
45728;SDS011;31439;53.512;10.206;2023-02-01T07:57:41;10.27;;;2.20;;
45728;SDS011;31439;53.512;10.206;2023-02-01T08:00:07;13.43;;;2.70;;
45728;SDS011;31439;53.512;10.206;2023-02-01T08:05:18;29.80;;;5.13;;
45728;SDS011;31439;53.512;10.206;2023-02-01T08:07:44;23.15;;;4.65;;
45728;SDS011;31439;53.512;10.206;2023-02-01T08:10:14;21.95;;;3.85;;
45728;SDS011;31439;53.512;10.206;2023-02-01T08:12:40;21.48;;;5.05;;
45728;SDS011;31439;53.512;10.206;2023-02-01T08:15:06;26.67;;;4.72;;
45728;SDS011;31439;53.512;10.206;2023-02-01T08:17:32;27.80;;;4.47;;
45728;SDS011;31439;53.512;10.206;2023-02-01T08:19:58;24.00;;;4.50;;
45728;SDS011;31439;53.512;10.206;2023-02-01T08:22:24;26.17;;;4.85;;
45728;SDS011;31439;53.512;10.206;2023-02-01T08:24:50;30.88;;;4.93;;
45728;SDS011;31439;53.512;10.206;2023-02-01T08:27:21;24.70;;;4.13;;
45728;SDS011;31439;53.512;10.206;2023-02-01T08:29:47;25.55;;;4.65;;
45728;SDS011;31439;53.512;10.206;2023-02-01T08:32:13;23.05;;;4.05;;
45728;SDS011;31439;53.512;10.206;2023-02-01T08:34:39;32.83;;;4.82;;
45728;SDS011;31439;53.512;10.206;2023-02-01T08:37:05;27.30;;;4.90;;
45728;SDS011;31439;53.512;10.206;2023-02-01T08:39:32;31.83;;;5.32;;
45728;SDS011;31439;53.512;10.206;2023-02-01T08:41:58;30.45;;;5.40;;
45728;SDS011;31439;53.512;10.206;2023-02-01T08:44:42;28.40;;;5.03;;
45728;SDS011;31439;53.512;10.206;2023-02-01T08:47:08;28.48;;;4.43;;
45728;SDS011;31439;53.512;10.206;2023-02-01T08:49:35;27.40;;;4.13;;
45728;SDS011;31439;53.512;10.206;2023-02-01T08:52:01;24.08;;;4.15;;
45728;SDS011;31439;53.512;10.206;2023-02-01T08:54:27;25.38;;;4.32;;
45728;SDS011;31439;53.512;10.206;2023-02-01T08:56:53;30.45;;;4.60;;
45728;SDS011;31439;53.512;10.206;2023-02-01T08:59:19;20.08;;;4.35;;
45728;SDS011;31439;53.512;10.206;2023-02-01T09:01:45;26.50;;;4.97;;
45728;SDS011;31439;53.512;10.206;2023-02-01T09:04:11;25.55;;;4.90;;
45728;SDS011;31439;53.512;10.206;2023-02-01T09:06:39;24.70;;;5.15;;
45728;SDS011;31439;53.512;10.206;2023-02-01T09:09:06;26.73;;;4.63;;
45728;SDS011;31439;53.512;10.206;2023-02-01T09:11:32;28.58;;;4.80;;
45728;SDS011;31439;53.512;10.206;2023-02-01T09:13:58;28.10;;;4.70;;
45728;SDS011;31439;53.512;10.206;2023-02-01T09:16:24;27.95;;;4.50;;
45728;SDS011;31439;53.512;10.206;2023-02-01T09:18:50;34.03;;;5.13;;
45728;SDS011;31439;53.512;10.206;2023-02-01T09:21:16;32.63;;;5.07;;
45728;SDS011;31439;53.512;10.206;2023-02-01T09:23:42;30.90;;;5.07;;
45728;SDS011;31439;53.512;10.206;2023-02-01T09:26:08;28.27;;;5.28;;
45728;SDS011;31439;53.512;10.206;2023-02-01T09:28:36;20.98;;;4.05;;
45728;SDS011;31439;53.512;10.206;2023-02-01T09:31:02;23.40;;;4.20;;
45728;SDS011;31439;53.512;10.206;2023-02-01T09:33:28;23.58;;;4.78;;
45728;SDS011;31439;53.512;10.206;2023-02-01T09:35:55;23.30;;;5.03;;
45728;SDS011;31439;53.512;10.206;2023-02-01T09:38:21;21.98;;;3.88;;
45728;SDS011;31439;53.512;10.206;2023-02-01T09:40:47;22.75;;;3.90;;
45728;SDS011;31439;53.512;10.206;2023-02-01T09:45:51;22.20;;;4.38;;
45728;SDS011;31439;53.512;10.206;2023-02-01T09:48:21;24.17;;;4.35;;
45728;SDS011;31439;53.512;10.206;2023-02-01T09:50:50;28.17;;;4.68;;
45728;SDS011;31439;53.512;10.206;2023-02-01T09:55:47;29.23;;;4.80;;
45728;SDS011;31439;53.512;10.206;2023-02-01T09:58:15;29.85;;;4.30;;
45728;SDS011;31439;53.512;10.206;2023-02-01T10:00:46;27.92;;;4.25;;
45728;SDS011;31439;53.512;10.206;2023-02-01T10:03:15;25.58;;;4.05;;
45728;SDS011;31439;53.512;10.206;2023-02-01T10:10:52;31.75;;;5.00;;
45728;SDS011;31439;53.512;10.206;2023-02-01T10:26:42;23.15;;;3.95;;
45728;SDS011;31439;53.512;10.206;2023-02-01T10:29:15;18.65;;;3.38;;
45728;SDS011;31439;53.512;10.206;2023-02-01T10:31:42;20.20;;;3.50;;
45728;SDS011;31439;53.512;10.206;2023-02-01T10:34:19;18.70;;;4.35;;
45728;SDS011;31439;53.512;10.206;2023-02-01T10:37:47;29.35;;;4.90;;
45728;SDS011;31439;53.512;10.206;2023-02-01T10:39:45;25.00;;;3.92;;
45728;SDS011;31439;53.512;10.206;2023-02-01T10:42:12;20.10;;;4.05;;
45728;SDS011;31439;53.512;10.206;2023-02-01T10:44:40;24.80;;;3.92;;
45728;SDS011;31439;53.512;10.206;2023-02-01T10:47:09;25.60;;;3.90;;
45728;SDS011;31439;53.512;10.206;2023-02-01T10:49:41;24.55;;;3.92;;
45728;SDS011;31439;53.512;10.206;2023-02-01T10:54:36;18.05;;;4.35;;
45728;SDS011;31439;53.512;10.206;2023-02-01T10:57:09;24.13;;;4.22;;
45728;SDS011;31439;53.512;10.206;2023-02-01T10:59:35;18.50;;;3.53;;
45728;SDS011;31439;53.512;10.206;2023-02-01T11:02:46;21.30;;;3.40;;
45728;SDS011;31439;53.512;10.206;2023-02-01T11:04:47;20.02;;;3.80;;
45728;SDS011;31439;53.512;10.206;2023-02-01T11:09:40;25.27;;;3.92;;
45728;SDS011;31439;53.512;10.206;2023-02-01T11:12:20;18.35;;;3.33;;
45728;SDS011;31439;53.512;10.206;2023-02-01T11:14:48;22.48;;;4.05;;
45728;SDS011;31439;53.512;10.206;2023-02-01T11:19:44;27.35;;;4.32;;
45728;SDS011;31439;53.512;10.206;2023-02-01T11:22:10;22.58;;;3.72;;
45728;SDS011;31439;53.512;10.206;2023-02-01T11:24:37;19.52;;;3.78;;
45728;SDS011;31439;53.512;10.206;2023-02-01T11:27:04;18.33;;;3.58;;
45728;SDS011;31439;53.512;10.206;2023-02-01T11:29:38;19.00;;;4.07;;
45728;SDS011;31439;53.512;10.206;2023-02-01T11:32:04;19.25;;;3.90;;
45728;SDS011;31439;53.512;10.206;2023-02-01T11:34:41;18.55;;;3.55;;
45728;SDS011;31439;53.512;10.206;2023-02-01T11:37:21;21.77;;;3.72;;
45728;SDS011;31439;53.512;10.206;2023-02-01T11:39:56;22.05;;;4.03;;
45728;SDS011;31439;53.512;10.206;2023-02-01T11:42:23;25.20;;;3.83;;
45728;SDS011;31439;53.512;10.206;2023-02-01T11:44:49;34.50;;;5.25;;
45728;SDS011;31439;53.512;10.206;2023-02-01T11:49:51;28.08;;;4.65;;
45728;SDS011;31439;53.512;10.206;2023-02-01T11:57:29;21.85;;;3.60;;
45728;SDS011;31439;53.512;10.206;2023-02-01T12:00:10;23.25;;;3.85;;
45728;SDS011;31439;53.512;10.206;2023-02-01T12:02:49;18.02;;;3.50;;
45728;SDS011;31439;53.512;10.206;2023-02-01T12:05:25;16.13;;;3.13;;
45728;SDS011;31439;53.512;10.206;2023-02-01T12:10:23;16.25;;;3.50;;
45728;SDS011;31439;53.512;10.206;2023-02-01T12:33:44;7.30;;;1.75;;
45728;SDS011;31439;53.512;10.206;2023-02-01T12:44:17;9.57;;;1.88;;
45728;SDS011;31439;53.512;10.206;2023-02-01T12:46:55;7.38;;;2.00;;
45728;SDS011;31439;53.512;10.206;2023-02-01T12:49:24;2.55;;;0.90;;
45728;SDS011;31439;53.512;10.206;2023-02-01T12:52:04;5.63;;;1.50;;
45728;SDS011;31439;53.512;10.206;2023-02-01T12:57:00;3.75;;;0.95;;
45728;SDS011;31439;53.512;10.206;2023-02-01T12:59:47;5.57;;;1.10;;
45728;SDS011;31439;53.512;10.206;2023-02-01T13:02:20;3.92;;;1.17;;
45728;SDS011;31439;53.512;10.206;2023-02-01T13:04:58;7.15;;;1.65;;
45728;SDS011;31439;53.512;10.206;2023-02-01T13:07:37;2.65;;;0.80;;
45728;SDS011;31439;53.512;10.206;2023-02-01T13:12:40;3.10;;;0.85;;
45728;SDS011;31439;53.512;10.206;2023-02-01T13:15:15;2.55;;;0.88;;
45728;SDS011;31439;53.512;10.206;2023-02-01T13:17:42;3.08;;;0.85;;
45728;SDS011;31439;53.512;10.206;2023-02-01T13:22:43;2.58;;;0.80;;
45728;SDS011;31439;53.512;10.206;2023-02-01T13:27:56;4.13;;;0.95;;
45728;SDS011;31439;53.512;10.206;2023-02-01T13:30:30;2.45;;;0.70;;
45728;SDS011;31439;53.512;10.206;2023-02-01T13:33:37;3.13;;;0.90;;
45728;SDS011;31439;53.512;10.206;2023-02-01T13:38:25;1.75;;;0.63;;
45728;SDS011;31439;53.512;10.206;2023-02-01T13:43:40;1.30;;;0.73;;
45728;SDS011;31439;53.512;10.206;2023-02-01T13:46:09;1.50;;;0.80;;
45728;SDS011;31439;53.512;10.206;2023-02-01T13:48:55;4.38;;;0.90;;
45728;SDS011;31439;53.512;10.206;2023-02-01T13:54:24;2.20;;;0.88;;
45728;SDS011;31439;53.512;10.206;2023-02-01T13:56:51;2.85;;;1.20;;
45728;SDS011;31439;53.512;10.206;2023-02-01T14:04:50;3.90;;;1.13;;
45728;SDS011;31439;53.512;10.206;2023-02-01T14:07:20;3.58;;;1.25;;
45728;SDS011;31439;53.512;10.206;2023-02-01T14:09:47;4.32;;;1.05;;
45728;SDS011;31439;53.512;10.206;2023-02-01T14:15:43;6.05;;;1.00;;
45728;SDS011;31439;53.512;10.206;2023-02-01T14:17:46;4.95;;;1.60;;
45728;SDS011;31439;53.512;10.206;2023-02-01T14:23:03;3.88;;;1.23;;
45728;SDS011;31439;53.512;10.206;2023-02-01T14:25:32;4.75;;;1.17;;
45728;SDS011;31439;53.512;10.206;2023-02-01T14:27:59;4.57;;;1.48;;
45728;SDS011;31439;53.512;10.206;2023-02-01T14:30:25;8.75;;;1.80;;
45728;SDS011;31439;53.512;10.206;2023-02-01T14:32:51;6.13;;;1.40;;
45728;SDS011;31439;53.512;10.206;2023-02-01T14:35:18;7.43;;;1.77;;
45728;SDS011;31439;53.512;10.206;2023-02-01T14:37:45;5.88;;;1.80;;
45728;SDS011;31439;53.512;10.206;2023-02-01T14:52:49;15.40;;;3.63;;
45728;SDS011;31439;53.512;10.206;2023-02-01T14:55:27;5.43;;;1.40;;
45728;SDS011;31439;53.512;10.206;2023-02-01T14:57:55;8.02;;;1.50;;
45728;SDS011;31439;53.512;10.206;2023-02-01T15:00:24;10.15;;;1.52;;
45728;SDS011;31439;53.512;10.206;2023-02-01T15:02:51;4.75;;;1.20;;
45728;SDS011;31439;53.512;10.206;2023-02-01T15:05:25;7.82;;;1.65;;
45728;SDS011;31439;53.512;10.206;2023-02-01T15:07:54;12.23;;;2.22;;
45728;SDS011;31439;53.512;10.206;2023-02-01T15:10:20;6.72;;;1.60;;
45728;SDS011;31439;53.512;10.206;2023-02-01T15:12:46;9.02;;;1.85;;
45728;SDS011;31439;53.512;10.206;2023-02-01T15:15:21;10.98;;;1.98;;
45728;SDS011;31439;53.512;10.206;2023-02-01T15:17:49;13.40;;;2.35;;
45728;SDS011;31439;53.512;10.206;2023-02-01T15:20:20;11.00;;;2.00;;
45728;SDS011;31439;53.512;10.206;2023-02-01T15:23:02;11.30;;;2.38;;
45728;SDS011;31439;53.512;10.206;2023-02-01T15:27:55;12.98;;;2.40;;
45728;SDS011;31439;53.512;10.206;2023-02-01T15:30:26;13.95;;;2.65;;
45728;SDS011;31439;53.512;10.206;2023-02-01T15:33:03;15.27;;;2.30;;
45728;SDS011;31439;53.512;10.206;2023-02-01T15:38:25;11.57;;;2.88;;
45728;SDS011;31439;53.512;10.206;2023-02-01T15:40:56;11.73;;;2.33;;
45728;SDS011;31439;53.512;10.206;2023-02-01T15:43:23;14.52;;;2.75;;
45728;SDS011;31439;53.512;10.206;2023-02-01T15:45:49;19.63;;;4.25;;
45728;SDS011;31439;53.512;10.206;2023-02-01T15:48:21;17.42;;;2.65;;
45728;SDS011;31439;53.512;10.206;2023-02-01T15:50:48;13.10;;;2.60;;
45728;SDS011;31439;53.512;10.206;2023-02-01T15:53:19;13.32;;;2.70;;
45728;SDS011;31439;53.512;10.206;2023-02-01T15:55:46;14.48;;;2.75;;
45728;SDS011;31439;53.512;10.206;2023-02-01T15:58:17;13.77;;;2.92;;
45728;SDS011;31439;53.512;10.206;2023-02-01T16:00:44;13.98;;;2.70;;
45728;SDS011;31439;53.512;10.206;2023-02-01T16:06:00;12.02;;;2.47;;
45728;SDS011;31439;53.512;10.206;2023-02-01T16:08:27;21.42;;;2.67;;
45728;SDS011;31439;53.512;10.206;2023-02-01T16:11:01;16.40;;;2.45;;
45728;SDS011;31439;53.512;10.206;2023-02-01T16:13:40;15.07;;;2.83;;
45728;SDS011;31439;53.512;10.206;2023-02-01T16:16:07;13.75;;;2.60;;
45728;SDS011;31439;53.512;10.206;2023-02-01T16:18:38;16.58;;;2.80;;
45728;SDS011;31439;53.512;10.206;2023-02-01T16:21:04;16.38;;;2.85;;
45728;SDS011;31439;53.512;10.206;2023-02-01T16:23:32;14.88;;;3.17;;
45728;SDS011;31439;53.512;10.206;2023-02-01T16:25:58;15.10;;;3.35;;
45728;SDS011;31439;53.512;10.206;2023-02-01T16:28:24;20.25;;;3.58;;
45728;SDS011;31439;53.512;10.206;2023-02-01T16:30:51;15.98;;;3.00;;
45728;SDS011;31439;53.512;10.206;2023-02-01T16:33:18;16.73;;;3.10;;
45728;SDS011;31439;53.512;10.206;2023-02-01T16:35:47;16.17;;;3.47;;
45728;SDS011;31439;53.512;10.206;2023-02-01T16:38:14;18.30;;;3.38;;
45728;SDS011;31439;53.512;10.206;2023-02-01T16:40:41;20.40;;;4.40;;
45728;SDS011;31439;53.512;10.206;2023-02-01T16:43:11;21.48;;;3.50;;
45728;SDS011;31439;53.512;10.206;2023-02-01T16:45:37;17.23;;;3.20;;
45728;SDS011;31439;53.512;10.206;2023-02-01T16:48:05;17.60;;;3.55;;
45728;SDS011;31439;53.512;10.206;2023-02-01T16:50:31;15.85;;;3.30;;
45728;SDS011;31439;53.512;10.206;2023-02-01T16:52:58;23.90;;;4.38;;
45728;SDS011;31439;53.512;10.206;2023-02-01T16:55:24;16.70;;;3.92;;
45728;SDS011;31439;53.512;10.206;2023-02-01T16:57:50;27.17;;;3.97;;
45728;SDS011;31439;53.512;10.206;2023-02-01T17:00:16;26.67;;;5.10;;
45728;SDS011;31439;53.512;10.206;2023-02-01T17:02:44;21.92;;;3.97;;
45728;SDS011;31439;53.512;10.206;2023-02-01T17:05:10;26.23;;;3.97;;
45728;SDS011;31439;53.512;10.206;2023-02-01T17:07:37;23.48;;;4.63;;
45728;SDS011;31439;53.512;10.206;2023-02-01T17:10:04;23.13;;;4.30;;